createdAt,value
2022-10-01T00:02:11.092Z,92.56
2022-10-01T00:04:40.204Z,92.63
2022-10-01T00:07:15.263Z,92.38
2022-10-01T00:09:45.847Z,92.22
2022-10-01T00:12:16.035Z,92.23
2022-10-01T00:14:45.272Z,92.09
2022-10-01T00:17:13.973Z,92.00
2022-10-01T00:19:42.657Z,92.02
2022-10-01T00:22:11.345Z,91.83
2022-10-01T00:24:40.810Z,91.65
2022-10-01T00:27:12.193Z,91.75
2022-10-01T00:29:45.398Z,91.84
2022-10-01T00:32:14.491Z,92.03
2022-10-01T00:34:43.180Z,92.01
2022-10-01T00:37:12.464Z,91.98
2022-10-01T00:39:41.173Z,91.98
2022-10-01T00:42:20.687Z,92.01
2022-10-01T00:44:50.422Z,92.05
2022-10-01T00:47:29.530Z,91.94
2022-10-01T00:50:07.188Z,91.89
2022-10-01T00:52:42.149Z,91.81
2022-10-01T00:55:18.318Z,91.82
2022-10-01T00:57:48.853Z,91.74
2022-10-01T01:00:18.618Z,91.80
2022-10-01T01:02:47.740Z,91.69
2022-10-01T01:05:16.680Z,91.70
2022-10-01T01:07:49.587Z,91.76
2022-10-01T01:10:29.995Z,91.61
2022-10-01T01:13:16.521Z,91.70
2022-10-01T01:15:56.409Z,91.75
2022-10-01T01:18:33.530Z,91.67
2022-10-01T01:21:21.072Z,91.59
2022-10-01T01:24:41.981Z,91.58
2022-10-01T01:27:32.489Z,91.56
2022-10-01T01:30:08.415Z,91.56
2022-10-01T01:32:47.557Z,91.41
2022-10-01T01:35:33.173Z,91.39
2022-10-01T01:38:10.516Z,91.45
2022-10-01T01:40:44.299Z,91.22
2022-10-01T01:43:21.527Z,91.47
2022-10-01T01:45:55.156Z,91.36
2022-10-01T01:48:25.748Z,91.37
2022-10-01T01:51:12.771Z,91.23
2022-10-01T01:53:42.881Z,91.33
2022-10-01T01:56:11.627Z,91.19
2022-10-01T01:58:41.027Z,91.30
2022-10-01T02:01:39.352Z,91.23
2022-10-01T02:04:16.736Z,91.30
2022-10-01T02:07:11.658Z,91.27
2022-10-01T02:09:53.429Z,91.49
2022-10-01T02:12:38.350Z,91.26
2022-10-01T02:15:18.733Z,91.28
2022-10-01T02:17:58.531Z,91.41
2022-10-01T02:20:36.184Z,91.16
2022-10-01T02:23:11.102Z,91.14
2022-10-01T02:25:49.658Z,91.09
2022-10-01T02:28:24.139Z,91.07
2022-10-01T02:30:56.619Z,91.02
2022-10-01T02:33:33.366Z,91.21
2022-10-01T02:36:07.198Z,90.66
2022-10-01T02:38:39.889Z,91.17
2022-10-01T02:41:12.462Z,91.07
2022-10-01T02:43:53.772Z,91.16
2022-10-01T02:46:29.600Z,91.22
2022-10-01T02:49:01.318Z,91.31
2022-10-01T02:51:41.344Z,90.85
2022-10-01T02:54:16.506Z,91.31
2022-10-01T02:57:02.514Z,91.32
2022-10-01T02:59:31.301Z,91.45
2022-10-01T03:02:00.239Z,91.44
2022-10-01T03:04:30.482Z,91.43
2022-10-01T03:07:03.598Z,91.12
2022-10-01T03:09:32.434Z,91.44
2022-10-01T03:12:02.371Z,91.53
2022-10-01T03:14:32.463Z,91.41
2022-10-01T03:17:01.605Z,91.41
2022-10-01T03:19:31.780Z,91.05
2022-10-01T03:22:00.666Z,90.96
2022-10-01T03:24:29.601Z,91.08
2022-10-01T03:26:58.699Z,91.12
2022-10-01T03:29:28.110Z,90.95
2022-10-01T03:31:57.103Z,90.94
2022-10-01T03:34:25.917Z,90.86
2022-10-01T03:36:56.110Z,90.85
2022-10-01T03:39:24.909Z,90.82
2022-10-01T03:41:53.931Z,90.80
2022-10-01T03:44:25.577Z,90.82
2022-10-01T03:46:54.671Z,90.82
2022-10-01T03:49:23.379Z,90.76
2022-10-01T03:51:52.460Z,90.79
2022-10-01T03:54:22.651Z,90.58
2022-10-01T03:56:52.369Z,90.66
2022-10-01T03:59:21.372Z,90.80
2022-10-01T04:01:50.620Z,90.63
2022-10-01T04:04:19.453Z,90.51
2022-10-01T04:06:48.180Z,90.56
2022-10-01T04:09:16.953Z,90.91
2022-10-01T04:11:47.109Z,91.18
2022-10-01T04:14:15.843Z,91.20
2022-10-01T04:16:44.513Z,91.06
2022-10-01T04:19:14.481Z,91.12
2022-10-01T04:21:43.184Z,90.91
2022-10-01T04:24:11.978Z,90.92
2022-10-01T04:26:40.573Z,90.79
2022-10-01T04:29:11.445Z,90.36
2022-10-01T04:31:40.430Z,90.29
2022-10-01T04:34:09.330Z,90.67
2022-10-01T04:36:37.980Z,90.29
2022-10-01T04:39:06.727Z,90.27
2022-10-01T04:41:35.761Z,90.45
2022-10-01T04:44:05.114Z,90.48
2022-10-01T04:46:35.352Z,90.39
2022-10-01T04:49:04.114Z,90.51
2022-10-01T04:51:33.152Z,90.35
2022-10-01T04:54:02.256Z,90.23
2022-10-01T04:56:31.128Z,90.36
2022-10-01T04:58:59.780Z,90.23
2022-10-01T05:01:28.626Z,90.29
2022-10-01T05:03:58.791Z,90.24
2022-10-01T05:06:27.454Z,89.95
2022-10-01T05:08:56.070Z,89.80
2022-10-01T05:11:24.932Z,89.72
2022-10-01T05:13:54.245Z,89.50
2022-10-01T05:16:23.548Z,89.50
2022-10-01T05:18:52.275Z,89.37
2022-10-01T05:21:22.465Z,89.38
2022-10-01T05:23:51.424Z,89.49
2022-10-01T05:26:20.250Z,89.34
2022-10-01T05:28:48.988Z,89.48
2022-10-01T05:31:18.803Z,89.26
2022-10-01T05:33:47.607Z,89.20
2022-10-01T05:36:16.792Z,89.10
2022-10-01T05:38:49.427Z,89.10
2022-10-01T05:41:18.045Z,89.06
2022-10-01T05:43:51.374Z,89.49
2022-10-01T05:46:20.438Z,89.73
2022-10-01T05:48:50.356Z,89.38
2022-10-01T05:51:19.537Z,88.91
2022-10-01T05:53:50.409Z,88.65
2022-10-01T05:56:19.341Z,88.65
2022-10-01T05:58:48.047Z,88.91
2022-10-01T06:01:16.806Z,89.03
2022-10-01T06:03:45.615Z,89.19
2022-10-01T06:06:14.551Z,89.07
2022-10-01T06:08:46.924Z,88.90
2022-10-01T06:11:17.874Z,88.74
2022-10-01T06:13:46.935Z,88.53
2022-10-01T06:16:16.941Z,88.42
2022-10-01T06:18:45.633Z,88.41
2022-10-01T06:21:14.398Z,88.36
2022-10-01T06:23:44.454Z,88.51
2022-10-01T06:26:13.256Z,88.49
2022-10-01T06:28:43.274Z,88.02
2022-10-01T06:31:12.140Z,87.91
2022-10-01T06:33:40.783Z,87.72
2022-10-01T06:36:09.702Z,87.55
2022-10-01T06:38:38.400Z,87.35
2022-10-01T06:41:07.311Z,87.40
2022-10-01T06:43:36.399Z,87.85
2022-10-01T06:46:07.786Z,87.92
2022-10-01T06:48:36.946Z,87.75
2022-10-01T06:51:06.639Z,87.26
2022-10-01T06:53:35.872Z,87.36
2022-10-01T06:56:09.013Z,87.29
2022-10-01T06:58:37.735Z,87.64
2022-10-01T07:01:08.106Z,87.62
2022-10-01T07:03:37.220Z,87.65
2022-10-01T07:06:08.838Z,87.25
2022-10-01T07:08:37.561Z,86.85
2022-10-01T07:11:06.618Z,86.76
2022-10-01T07:13:35.428Z,87.14
2022-10-01T07:16:05.188Z,86.91
2022-10-01T07:18:35.268Z,86.90
2022-10-01T07:21:04.073Z,86.59
2022-10-01T07:23:32.876Z,86.19
2022-10-01T07:26:01.500Z,86.23
2022-10-01T07:28:30.305Z,86.43
2022-10-01T07:31:02.866Z,86.77
2022-10-01T07:33:31.694Z,86.40
2022-10-01T07:36:04.026Z,86.15
2022-10-01T07:38:34.107Z,85.89
2022-10-01T07:41:04.825Z,85.69
2022-10-01T07:43:36.273Z,85.23
2022-10-01T07:46:05.263Z,85.22
2022-10-01T07:48:34.037Z,85.12
2022-10-01T07:51:04.043Z,85.10
2022-10-01T07:53:32.942Z,85.15
2022-10-01T07:56:02.624Z,85.55
2022-10-01T07:58:31.341Z,85.48
2022-10-01T08:01:05.343Z,85.69
2022-10-01T08:03:34.358Z,85.07
2022-10-01T08:06:06.879Z,85.09
2022-10-01T08:08:35.582Z,84.90
2022-10-01T08:11:04.462Z,84.58
2022-10-01T08:13:35.082Z,84.62
2022-10-01T08:16:06.503Z,84.82
2022-10-01T08:18:35.471Z,84.74
2022-10-01T08:21:06.394Z,85.02
2022-10-01T08:23:35.673Z,84.91
2022-10-01T08:26:08.279Z,84.61
2022-10-01T08:28:37.336Z,84.32
2022-10-01T08:31:09.167Z,84.20
2022-10-01T08:33:38.472Z,84.50
2022-10-01T08:36:09.609Z,84.38
2022-10-01T08:38:40.260Z,84.29
2022-10-01T08:41:31.869Z,84.41
2022-10-01T08:44:05.133Z,84.47
2022-10-01T08:46:37.769Z,83.98
2022-10-01T08:49:16.904Z,84.15
2022-10-01T08:51:55.972Z,84.63
2022-10-01T08:54:33.916Z,84.51
2022-10-01T08:57:06.549Z,84.15
2022-10-01T08:59:42.013Z,84.10
2022-10-01T09:02:22.556Z,84.21
2022-10-01T09:05:00.346Z,84.41
2022-10-01T09:08:18.499Z,83.52
2022-10-01T09:10:51.076Z,83.46
2022-10-01T09:13:52.855Z,83.57
2022-10-01T09:16:29.815Z,83.81
2022-10-01T09:19:23.234Z,84.21
2022-10-01T09:21:59.460Z,82.89
2022-10-01T09:24:45.085Z,82.05
2022-10-01T09:27:17.615Z,82.51
2022-10-01T09:29:52.846Z,82.67
2022-10-01T09:32:28.031Z,83.19
2022-10-01T09:35:04.479Z,82.54
2022-10-01T09:37:46.360Z,82.15
2022-10-01T09:40:27.582Z,81.88
2022-10-01T09:42:57.386Z,81.56
2022-10-01T09:45:26.793Z,81.72
2022-10-01T09:48:04.749Z,81.28
2022-10-01T09:50:45.369Z,80.75
2022-10-01T09:53:21.733Z,80.74
2022-10-01T09:55:57.237Z,80.56
2022-10-01T09:58:29.298Z,81.00
2022-10-01T10:01:00.086Z,80.88
2022-10-01T10:03:31.214Z,80.74
2022-10-01T10:06:01.275Z,80.81
2022-10-01T10:08:34.952Z,81.03
2022-10-01T10:11:09.953Z,80.76
2022-10-01T10:13:43.427Z,79.95
2022-10-01T10:16:26.140Z,80.08
2022-10-01T10:19:00.161Z,79.74
2022-10-01T10:21:34.118Z,79.49
2022-10-01T10:24:05.574Z,79.42
2022-10-01T10:26:39.590Z,79.80
2022-10-01T10:29:26.953Z,80.67
2022-10-01T10:31:56.403Z,80.56
2022-10-01T10:34:34.871Z,80.63
2022-10-01T10:37:12.182Z,80.76
2022-10-01T10:39:44.608Z,79.77
2022-10-01T10:42:17.313Z,79.60
2022-10-01T10:44:51.136Z,79.74
2022-10-01T10:47:23.267Z,79.33
2022-10-01T10:49:57.241Z,79.82
2022-10-01T10:52:33.513Z,79.17
2022-10-01T10:55:20.120Z,79.09
2022-10-01T10:57:54.387Z,78.74
2022-10-01T11:00:27.529Z,79.17
2022-10-01T11:03:01.220Z,79.06
2022-10-01T11:05:33.911Z,78.37
2022-10-01T11:08:07.991Z,77.58
2022-10-01T11:10:54.560Z,77.42
2022-10-01T11:13:52.692Z,77.27
2022-10-01T11:16:51.223Z,77.57
2022-10-01T11:19:48.413Z,77.82
2022-10-01T11:22:44.125Z,77.93
2022-10-01T11:25:30.567Z,78.19
2022-10-01T11:28:19.989Z,78.03
2022-10-01T11:31:03.220Z,77.63
2022-10-01T11:33:46.487Z,77.86
2022-10-01T11:36:26.620Z,78.04
2022-10-01T11:39:01.515Z,78.04
2022-10-01T11:41:38.401Z,78.22
2022-10-01T11:44:15.860Z,77.96
2022-10-01T11:46:58.648Z,77.38
2022-10-01T11:49:50.224Z,77.14
2022-10-01T11:52:38.977Z,77.44
2022-10-01T11:55:38.898Z,78.18
2022-10-01T11:58:35.900Z,77.85
2022-10-01T12:01:12.905Z,77.74
2022-10-01T12:04:01.934Z,77.87
2022-10-01T12:06:37.187Z,77.91
2022-10-01T12:09:15.348Z,77.62
2022-10-01T12:11:52.868Z,77.44
2022-10-01T12:14:31.487Z,78.14
2022-10-01T12:17:12.178Z,77.67
2022-10-01T12:19:48.033Z,78.25
2022-10-01T12:22:25.734Z,78.42
2022-10-01T12:24:55.046Z,78.86
2022-10-01T12:27:41.052Z,78.59
2022-10-01T12:30:15.390Z,78.80
2022-10-01T12:33:13.856Z,78.71
2022-10-01T12:36:10.717Z,78.42
2022-10-01T12:39:02.627Z,78.20
2022-10-01T12:41:46.624Z,78.46
2022-10-01T12:44:38.534Z,78.95
2022-10-01T12:47:27.492Z,78.85
2022-10-01T12:50:11.167Z,79.16
2022-10-01T12:52:58.496Z,78.71
2022-10-01T12:55:54.923Z,78.48
2022-10-01T12:58:56.258Z,78.37
2022-10-01T13:01:45.157Z,78.66
2022-10-01T13:04:35.389Z,78.59
2022-10-01T13:07:32.971Z,78.65
2022-10-01T13:10:20.090Z,78.47
2022-10-01T13:13:06.450Z,79.11
2022-10-01T13:15:40.529Z,78.97
2022-10-01T13:18:27.215Z,79.23
2022-10-01T13:21:07.155Z,79.67
2022-10-01T13:23:48.191Z,79.39
2022-10-01T13:26:26.848Z,79.22
2022-10-01T13:29:22.711Z,79.52
2022-10-01T13:31:59.364Z,79.47
2022-10-01T13:34:40.827Z,79.64
2022-10-01T13:37:16.061Z,79.45
2022-10-01T13:39:45.601Z,79.47
2022-10-01T13:42:44.902Z,79.78
2022-10-01T13:45:34.314Z,79.77
2022-10-01T13:48:13.533Z,79.82
2022-10-01T13:50:55.402Z,79.63
2022-10-01T13:53:29.797Z,79.50
2022-10-01T13:55:59.012Z,79.73
2022-10-01T13:58:39.838Z,79.71
2022-10-01T14:01:30.538Z,79.39
2022-10-01T14:04:09.647Z,79.96
2022-10-01T14:06:49.896Z,79.77
2022-10-01T14:09:24.387Z,79.99
2022-10-01T14:12:16.123Z,80.22
2022-10-01T14:15:13.800Z,80.56
2022-10-01T14:17:45.333Z,81.00
2022-10-01T14:20:20.251Z,81.37
2022-10-01T14:23:10.166Z,81.81
2022-10-01T14:25:53.612Z,81.70
2022-10-01T14:28:42.072Z,81.59
2022-10-01T14:31:24.324Z,81.55
2022-10-01T14:34:26.173Z,81.36
2022-10-01T14:36:57.041Z,81.38
2022-10-01T14:39:27.869Z,81.79
2022-10-01T14:41:59.077Z,81.67
2022-10-01T14:44:30.382Z,82.30
2022-10-01T14:47:01.895Z,82.33
2022-10-01T14:49:33.360Z,82.41
2022-10-01T14:52:07.340Z,82.60
2022-10-01T14:54:47.001Z,82.63
2022-10-01T14:57:29.075Z,82.96
2022-10-01T15:00:01.554Z,83.13
2022-10-01T15:02:33.878Z,82.87
2022-10-01T15:05:02.700Z,82.78
2022-10-01T15:07:37.521Z,82.79
2022-10-01T15:10:10.246Z,82.50
2022-10-01T15:12:42.468Z,83.01
2022-10-01T15:15:21.730Z,83.53
2022-10-01T15:17:53.279Z,83.30
2022-10-01T15:20:21.947Z,83.24
2022-10-01T15:22:58.993Z,83.34
2022-10-01T15:25:33.089Z,83.58
2022-10-01T15:28:02.263Z,83.22
2022-10-01T15:30:33.852Z,83.04
2022-10-01T15:33:04.828Z,83.21
2022-10-01T15:35:35.736Z,83.36
2022-10-01T15:38:04.916Z,82.81
2022-10-01T15:40:35.667Z,82.96
2022-10-01T15:43:27.026Z,83.36
2022-10-01T15:46:18.103Z,83.28
2022-10-01T15:48:49.099Z,83.39
2022-10-01T15:51:25.756Z,83.25
2022-10-01T15:54:03.042Z,84.10
2022-10-01T15:56:32.289Z,83.74
2022-10-01T15:59:17.553Z,83.83
2022-10-01T16:01:46.515Z,83.77
2022-10-01T16:04:16.904Z,83.31
2022-10-01T16:06:49.362Z,83.59
2022-10-01T16:09:21.653Z,83.62
2022-10-01T16:11:56.808Z,83.90
2022-10-01T16:14:36.671Z,84.33
2022-10-01T16:17:32.842Z,84.32
2022-10-01T16:20:34.401Z,84.43
2022-10-01T16:23:47.964Z,84.48
2022-10-01T16:26:39.795Z,84.46
2022-10-01T16:29:24.883Z,84.32
2022-10-01T16:31:54.354Z,84.26
2022-10-01T16:34:23.397Z,84.62
2022-10-01T16:36:59.082Z,84.28
2022-10-01T16:39:28.158Z,84.23
2022-10-01T16:42:22.305Z,84.45
2022-10-01T16:44:46.560Z,84.88
2022-10-01T16:47:15.621Z,84.64
2022-10-01T16:49:44.868Z,84.53
2022-10-01T16:52:22.540Z,84.97
2022-10-01T16:54:52.252Z,85.43
2022-10-01T16:57:21.340Z,84.65
2022-10-01T16:59:50.249Z,84.64
2022-10-01T17:02:19.565Z,84.56
2022-10-01T17:04:48.931Z,84.49
2022-10-01T17:07:19.719Z,84.53
2022-10-01T17:09:51.776Z,84.67
2022-10-01T17:12:21.093Z,84.82
2022-10-01T17:14:51.400Z,84.83
2022-10-01T17:17:20.723Z,84.97
2022-10-01T17:19:49.958Z,84.68
2022-10-01T17:22:21.044Z,85.09
2022-10-01T17:24:50.764Z,85.06
2022-10-01T17:27:22.919Z,85.25
2022-10-01T17:29:52.401Z,85.15
2022-10-01T17:32:21.751Z,85.02
2022-10-01T17:34:53.867Z,85.29
2022-10-01T17:37:24.753Z,85.24
2022-10-01T17:39:54.126Z,85.52
2022-10-01T17:42:23.541Z,85.66
2022-10-01T17:44:52.697Z,85.43
2022-10-01T17:47:21.903Z,85.07
2022-10-01T17:49:51.168Z,85.08
2022-10-01T17:52:22.559Z,85.80
2022-10-01T17:54:53.328Z,85.69
2022-10-01T17:57:22.815Z,86.02
2022-10-01T17:59:52.405Z,85.82
2022-10-01T18:02:41.010Z,85.99
2022-10-01T18:05:14.642Z,86.08
2022-10-01T18:07:44.488Z,85.62
2022-10-01T18:10:15.692Z,85.57
2022-10-01T18:12:45.008Z,85.92
2022-10-01T18:15:14.528Z,86.29
2022-10-01T18:17:51.252Z,86.38
2022-10-01T18:20:22.240Z,86.38
2022-10-01T18:22:52.351Z,86.59
2022-10-01T18:25:22.936Z,86.22
2022-10-01T18:27:52.076Z,86.09
2022-10-01T18:30:21.422Z,86.76
2022-10-01T18:32:57.203Z,86.49
2022-10-01T18:35:33.114Z,86.75
2022-10-01T18:38:12.598Z,86.44
2022-10-01T18:40:45.475Z,85.45
2022-10-01T18:43:21.940Z,85.70
2022-10-01T18:46:12.749Z,86.10
2022-10-01T18:49:15.949Z,86.62
2022-10-01T18:52:04.162Z,86.40
2022-10-01T18:54:55.455Z,85.98
2022-10-01T18:57:49.346Z,85.99
2022-10-01T19:00:23.560Z,86.13
2022-10-01T19:03:25.731Z,86.13
2022-10-01T19:06:34.035Z,86.07
2022-10-01T19:09:27.047Z,86.20
2022-10-01T19:12:12.921Z,86.53
2022-10-01T19:15:01.290Z,86.27
2022-10-01T19:17:56.311Z,86.70
2022-10-01T19:20:46.525Z,86.79
2022-10-01T19:23:41.359Z,86.10
2022-10-01T19:26:23.454Z,86.10
2022-10-01T19:29:12.826Z,86.47
2022-10-01T19:31:54.202Z,85.60
2022-10-01T19:34:32.744Z,85.76
2022-10-01T19:37:12.004Z,86.01
2022-10-01T19:39:45.384Z,85.39
2022-10-01T19:42:22.466Z,85.37
2022-10-01T19:45:01.432Z,85.63
2022-10-01T19:47:50.834Z,86.22
2022-10-01T19:50:25.515Z,86.18
2022-10-01T19:52:59.668Z,86.97
2022-10-01T19:55:38.760Z,86.42
2022-10-01T19:58:19.131Z,86.61
2022-10-01T20:00:55.698Z,85.86
2022-10-01T20:03:37.710Z,85.87
2022-10-01T20:06:19.311Z,86.22
2022-10-01T20:08:53.783Z,86.26
2022-10-01T20:11:31.374Z,86.51
2022-10-01T20:14:37.166Z,86.44
2022-10-01T20:17:20.165Z,86.76
2022-10-01T20:20:01.074Z,86.90
2022-10-01T20:22:42.215Z,86.79
2022-10-01T20:25:24.176Z,86.86
2022-10-01T20:28:02.748Z,87.42
2022-10-01T20:30:44.954Z,86.42
2022-10-01T20:33:27.237Z,86.63
2022-10-01T20:36:13.315Z,86.35
2022-10-01T20:38:50.748Z,86.33
2022-10-01T20:41:24.264Z,86.41
2022-10-01T20:43:59.892Z,86.31
2022-10-01T20:46:38.412Z,86.13
2022-10-01T20:49:20.795Z,86.25
2022-10-01T20:52:02.115Z,86.27
2022-10-01T20:54:37.874Z,86.34
2022-10-01T20:57:20.311Z,86.37
2022-10-01T20:59:55.029Z,86.82
2022-10-01T21:02:35.642Z,86.95
2022-10-01T21:05:14.863Z,87.11
2022-10-01T21:07:56.881Z,86.90
2022-10-01T21:10:34.840Z,87.01
2022-10-01T21:13:14.089Z,86.38
2022-10-01T21:15:56.094Z,86.72
2022-10-01T21:18:41.184Z,87.01
2022-10-01T21:21:23.746Z,86.35
2022-10-01T21:24:11.823Z,86.82
2022-10-01T21:27:00.972Z,87.26
2022-10-01T21:30:05.412Z,86.94
2022-10-01T21:33:04.428Z,86.95
2022-10-01T21:35:45.361Z,87.02
2022-10-01T21:38:33.177Z,87.09
2022-10-01T21:41:25.125Z,86.94
2022-10-01T21:44:39.663Z,87.24
2022-10-01T21:47:18.451Z,87.24
2022-10-01T21:50:02.318Z,87.70
2022-10-01T21:52:45.726Z,87.75
2022-10-01T21:55:30.179Z,86.65
2022-10-01T21:58:18.571Z,86.50
2022-10-01T22:01:01.473Z,86.52
2022-10-01T22:03:39.534Z,86.42
2022-10-01T22:06:17.521Z,86.29
2022-10-01T22:09:08.959Z,86.28
2022-10-01T22:11:42.396Z,86.37
2022-10-01T22:14:19.226Z,86.52
2022-10-01T22:16:55.552Z,86.80
2022-10-01T22:19:30.168Z,87.05
2022-10-01T22:22:05.947Z,87.22
2022-10-01T22:24:43.640Z,87.21
2022-10-01T22:27:21.367Z,87.13
2022-10-01T22:29:58.475Z,87.13
2022-10-01T22:32:40.413Z,87.19
2022-10-01T22:35:18.310Z,87.26
2022-10-01T22:37:55.001Z,87.74
2022-10-01T22:40:31.193Z,87.78
2022-10-01T22:43:07.866Z,87.82
2022-10-01T22:45:55.088Z,87.95
2022-10-01T22:48:49.928Z,88.31
2022-10-01T22:51:44.233Z,88.47
2022-10-01T22:54:32.319Z,88.51
2022-10-01T22:57:20.662Z,88.22
2022-10-01T23:00:02.715Z,88.18
2022-10-01T23:02:43.886Z,87.98
2022-10-01T23:05:30.533Z,87.60
2022-10-01T23:08:08.692Z,87.56
2022-10-01T23:10:53.009Z,87.77
2022-10-01T23:13:40.093Z,87.70
2022-10-01T23:16:21.198Z,87.76
2022-10-01T23:19:08.087Z,87.97
2022-10-01T23:21:44.991Z,87.89
2022-10-01T23:24:37.236Z,87.82
2022-10-01T23:27:21.687Z,87.74
2022-10-01T23:30:09.696Z,87.55
2022-10-01T23:33:10.579Z,87.36
2022-10-01T23:35:54.558Z,87.47
2022-10-01T23:39:03.036Z,87.47
2022-10-01T23:41:40.989Z,87.66
2022-10-01T23:44:19.111Z,87.70
2022-10-01T23:46:53.306Z,87.53
2022-10-01T23:49:30.635Z,87.47
2022-10-01T23:52:12.760Z,87.71
2022-10-01T23:54:49.887Z,87.73
2022-10-01T23:57:25.929Z,88.11
